sensor_id;sensor_type;location;lat;lon;timestamp;pressure;altitude;pressure_sealevel;temperature;humidity
68793;BME280;55778;54.346;10.210;2023-04-30T00:02:07;101812.19;;;3.83;87.96
68793;BME280;55778;54.346;10.210;2023-04-30T00:04:33;101827.44;;;3.84;87.83
68793;BME280;55778;54.346;10.210;2023-04-30T00:06:58;101819.50;;;3.81;87.94
68793;BME280;55778;54.346;10.210;2023-04-30T00:09:24;101820.59;;;3.77;88.27
68793;BME280;55778;54.346;10.210;2023-04-30T00:11:49;101824.25;;;3.76;88.11
68793;BME280;55778;54.346;10.210;2023-04-30T00:14:14;101823.13;;;3.80;87.66
68793;BME280;55778;54.346;10.210;2023-04-30T00:16:40;101825.13;;;3.76;87.75
68793;BME280;55778;54.346;10.210;2023-04-30T00:19:06;101825.81;;;3.63;88.42
68793;BME280;55778;54.346;10.210;2023-04-30T00:21:32;101828.50;;;3.63;88.55
68793;BME280;55778;54.346;10.210;2023-04-30T00:23:57;101832.53;;;3.54;88.62
68793;BME280;55778;54.346;10.210;2023-04-30T00:26:25;101828.66;;;3.60;88.98
68793;BME280;55778;54.346;10.210;2023-04-30T00:28:50;101822.00;;;3.67;88.55
68793;BME280;55778;54.346;10.210;2023-04-30T00:31:15;101818.09;;;3.55;88.56
68793;BME280;55778;54.346;10.210;2023-04-30T00:33:41;101832.16;;;3.62;88.78
68793;BME280;55778;54.346;10.210;2023-04-30T00:36:06;101828.34;;;3.66;88.64
68793;BME280;55778;54.346;10.210;2023-04-30T00:38:32;101836.09;;;3.55;88.93
68793;BME280;55778;54.346;10.210;2023-04-30T00:40:57;101844.16;;;3.55;89.34
68793;BME280;55778;54.346;10.210;2023-04-30T00:43:23;101840.53;;;3.56;88.87
68793;BME280;55778;54.346;10.210;2023-04-30T00:45:48;101845.19;;;3.52;89.34
68793;BME280;55778;54.346;10.210;2023-04-30T00:48:13;101842.50;;;3.52;89.86
68793;BME280;55778;54.346;10.210;2023-04-30T00:50:40;101850.31;;;3.40;91.11
68793;BME280;55778;54.346;10.210;2023-04-30T00:53:05;101845.47;;;3.29;92.23
68793;BME280;55778;54.346;10.210;2023-04-30T00:55:31;101856.53;;;3.23;92.81
68793;BME280;55778;54.346;10.210;2023-04-30T00:57:57;101854.81;;;3.21;93.13
68793;BME280;55778;54.346;10.210;2023-04-30T01:00:24;101859.72;;;3.13;93.44
68793;BME280;55778;54.346;10.210;2023-04-30T01:02:49;101857.25;;;3.08;94.17
68793;BME280;55778;54.346;10.210;2023-04-30T01:05:15;101858.75;;;3.14;94.21
68793;BME280;55778;54.346;10.210;2023-04-30T01:07:40;101853.53;;;3.11;93.85
68793;BME280;55778;54.346;10.210;2023-04-30T01:10:10;101858.09;;;3.09;94.06
68793;BME280;55778;54.346;10.210;2023-04-30T01:12:42;101865.47;;;3.05;93.91
68793;BME280;55778;54.346;10.210;2023-04-30T01:15:27;101868.09;;;3.07;94.24
68793;BME280;55778;54.346;10.210;2023-04-30T01:18:20;101867.13;;;3.08;94.23
68793;BME280;55778;54.346;10.210;2023-04-30T01:20:53;101862.84;;;3.04;94.01
68793;BME280;55778;54.346;10.210;2023-04-30T01:24:02;101859.19;;;3.05;94.38
68793;BME280;55778;54.346;10.210;2023-04-30T01:26:47;101873.00;;;2.97;94.99
68793;BME280;55778;54.346;10.210;2023-04-30T01:29:18;101872.88;;;3.00;95.04
68793;BME280;55778;54.346;10.210;2023-04-30T01:31:44;101876.88;;;2.92;95.46
68793;BME280;55778;54.346;10.210;2023-04-30T01:34:10;101868.56;;;2.96;95.72
68793;BME280;55778;54.346;10.210;2023-04-30T01:39:50;101863.41;;;2.92;95.87
68793;BME280;55778;54.346;10.210;2023-04-30T01:42:22;101871.63;;;2.89;95.87
68793;BME280;55778;54.346;10.210;2023-04-30T01:44:52;101873.34;;;2.90;95.99
68793;BME280;55778;54.346;10.210;2023-04-30T01:55:13;101868.66;;;2.95;96.26
68793;BME280;55778;54.346;10.210;2023-04-30T01:57:43;101880.28;;;2.95;96.50
68793;BME280;55778;54.346;10.210;2023-04-30T02:00:11;101870.88;;;2.85;96.74
68793;BME280;55778;54.346;10.210;2023-04-30T02:02:36;101864.34;;;2.91;96.86
68793;BME280;55778;54.346;10.210;2023-04-30T02:05:02;101868.28;;;3.02;95.89
68793;BME280;55778;54.346;10.210;2023-04-30T02:07:39;101872.88;;;3.00;95.69
68793;BME280;55778;54.346;10.210;2023-04-30T02:10:06;101875.13;;;3.09;95.62
68793;BME280;55778;54.346;10.210;2023-04-30T02:12:32;101881.69;;;3.04;95.80
68793;BME280;55778;54.346;10.210;2023-04-30T02:14:57;101878.84;;;3.07;95.53
68793;BME280;55778;54.346;10.210;2023-04-30T02:17:23;101885.63;;;3.15;95.11
68793;BME280;55778;54.346;10.210;2023-04-30T02:19:48;101888.31;;;3.15;95.17
68793;BME280;55778;54.346;10.210;2023-04-30T02:22:13;101886.28;;;3.20;95.01
68793;BME280;55778;54.346;10.210;2023-04-30T02:24:39;101888.25;;;3.17;95.02
68793;BME280;55778;54.346;10.210;2023-04-30T02:27:04;101890.88;;;3.18;95.02
68793;BME280;55778;54.346;10.210;2023-04-30T02:29:30;101893.28;;;3.24;94.80
68793;BME280;55778;54.346;10.210;2023-04-30T02:31:58;101886.50;;;3.34;94.30
68793;BME280;55778;54.346;10.210;2023-04-30T02:34:24;101893.06;;;3.29;94.62
68793;BME280;55778;54.346;10.210;2023-04-30T02:36:50;101884.97;;;3.29;94.48
68793;BME280;55778;54.346;10.210;2023-04-30T02:39:15;101890.94;;;3.35;94.25
68793;BME280;55778;54.346;10.210;2023-04-30T02:41:40;101898.00;;;3.38;93.85
68793;BME280;55778;54.346;10.210;2023-04-30T02:44:06;101892.47;;;3.41;93.58
68793;BME280;55778;54.346;10.210;2023-04-30T02:46:31;101902.72;;;3.33;93.92
68793;BME280;55778;54.346;10.210;2023-04-30T02:48:56;101894.88;;;3.28;93.95
68793;BME280;55778;54.346;10.210;2023-04-30T02:51:22;101895.91;;;3.26;94.19
68793;BME280;55778;54.346;10.210;2023-04-30T02:53:47;101896.09;;;3.21;94.54
68793;BME280;55778;54.346;10.210;2023-04-30T02:56:14;101895.44;;;3.16;94.67
68793;BME280;55778;54.346;10.210;2023-04-30T02:58:39;101898.19;;;3.15;94.81
68793;BME280;55778;54.346;10.210;2023-04-30T03:01:05;101898.41;;;3.10;94.99
68793;BME280;55778;54.346;10.210;2023-04-30T03:03:30;101902.56;;;2.99;95.80
68793;BME280;55778;54.346;10.210;2023-04-30T03:05:56;101896.50;;;2.94;96.29
68793;BME280;55778;54.346;10.210;2023-04-30T03:08:26;101891.34;;;2.89;96.53
68793;BME280;55778;54.346;10.210;2023-04-30T03:10:51;101891.22;;;2.92;96.39
68793;BME280;55778;54.346;10.210;2023-04-30T03:13:17;101898.47;;;2.90;96.69
68793;BME280;55778;54.346;10.210;2023-04-30T03:15:43;101896.06;;;2.84;96.74
68793;BME280;55778;54.346;10.210;2023-04-30T03:18:09;101899.78;;;2.82;97.01
68793;BME280;55778;54.346;10.210;2023-04-30T03:20:35;101898.81;;;2.83;97.10
68793;BME280;55778;54.346;10.210;2023-04-30T03:23:00;101899.63;;;2.85;97.04
68793;BME280;55778;54.346;10.210;2023-04-30T03:25:26;101907.72;;;2.85;96.79
68793;BME280;55778;54.346;10.210;2023-04-30T03:27:51;101903.44;;;2.79;97.35
68793;BME280;55778;54.346;10.210;2023-04-30T03:30:16;101903.44;;;2.79;97.23
68793;BME280;55778;54.346;10.210;2023-04-30T03:32:42;101902.53;;;2.80;96.83
68793;BME280;55778;54.346;10.210;2023-04-30T03:35:07;101901.78;;;2.77;97.26
68793;BME280;55778;54.346;10.210;2023-04-30T03:37:33;101901.72;;;2.78;97.34
68793;BME280;55778;54.346;10.210;2023-04-30T03:39:58;101898.41;;;2.72;97.55
68793;BME280;55778;54.346;10.210;2023-04-30T03:42:24;101904.75;;;2.71;98.12
68793;BME280;55778;54.346;10.210;2023-04-30T03:44:49;101912.00;;;2.69;98.28
68793;BME280;55778;54.346;10.210;2023-04-30T03:47:15;101921.09;;;2.66;98.78
68793;BME280;55778;54.346;10.210;2023-04-30T03:49:40;101916.41;;;2.71;98.89
68793;BME280;55778;54.346;10.210;2023-04-30T03:52:06;101918.75;;;2.79;97.88
68793;BME280;55778;54.346;10.210;2023-04-30T03:54:31;101914.34;;;2.76;98.03
68793;BME280;55778;54.346;10.210;2023-04-30T03:56:58;101914.28;;;2.78;97.90
68793;BME280;55778;54.346;10.210;2023-04-30T03:59:24;101920.00;;;2.70;98.25
68793;BME280;55778;54.346;10.210;2023-04-30T04:01:52;101917.03;;;2.76;98.05
68793;BME280;55778;54.346;10.210;2023-04-30T04:04:17;101930.38;;;2.79;98.15
68793;BME280;55778;54.346;10.210;2023-04-30T04:06:42;101928.63;;;2.78;98.13
68793;BME280;55778;54.346;10.210;2023-04-30T04:09:08;101933.81;;;2.83;97.89
68793;BME280;55778;54.346;10.210;2023-04-30T04:11:33;101937.09;;;2.89;97.44
68793;BME280;55778;54.346;10.210;2023-04-30T04:13:59;101933.66;;;2.86;97.39
68793;BME280;55778;54.346;10.210;2023-04-30T04:16:25;101940.06;;;2.83;98.32
68793;BME280;55778;54.346;10.210;2023-04-30T04:18:51;101942.69;;;2.85;98.25
68793;BME280;55778;54.346;10.210;2023-04-30T04:21:16;101938.38;;;2.81;98.67
68793;BME280;55778;54.346;10.210;2023-04-30T04:23:42;101930.44;;;2.78;98.81
68793;BME280;55778;54.346;10.210;2023-04-30T04:26:07;101932.06;;;2.82;98.45
68793;BME280;55778;54.346;10.210;2023-04-30T04:28:34;101935.28;;;2.90;98.04
68793;BME280;55778;54.346;10.210;2023-04-30T04:31:01;101940.91;;;3.04;97.34
68793;BME280;55778;54.346;10.210;2023-04-30T04:33:28;101942.72;;;3.03;96.65
68793;BME280;55778;54.346;10.210;2023-04-30T04:35:53;101948.13;;;3.03;97.00
68793;BME280;55778;54.346;10.210;2023-04-30T04:38:19;101954.59;;;2.99;97.00
68793;BME280;55778;54.346;10.210;2023-04-30T04:40:51;101959.91;;;3.01;97.43
68793;BME280;55778;54.346;10.210;2023-04-30T04:43:17;101951.81;;;3.01;97.64
68793;BME280;55778;54.346;10.210;2023-04-30T04:45:42;101960.13;;;3.15;96.91
68793;BME280;55778;54.346;10.210;2023-04-30T04:48:08;101957.09;;;3.22;95.52
68793;BME280;55778;54.346;10.210;2023-04-30T04:50:33;101958.28;;;3.35;94.65
68793;BME280;55778;54.346;10.210;2023-04-30T04:52:59;101957.91;;;3.43;93.35
68793;BME280;55778;54.346;10.210;2023-04-30T04:55:24;101960.03;;;3.55;92.48
68793;BME280;55778;54.346;10.210;2023-04-30T04:57:52;101963.41;;;3.60;91.55
68793;BME280;55778;54.346;10.210;2023-04-30T05:00:18;101967.53;;;3.67;90.86
68793;BME280;55778;54.346;10.210;2023-04-30T05:02:46;101966.84;;;3.63;91.06
68793;BME280;55778;54.346;10.210;2023-04-30T05:05:11;101969.06;;;3.72;91.00
68793;BME280;55778;54.346;10.210;2023-04-30T05:07:37;101969.66;;;3.79;90.28
68793;BME280;55778;54.346;10.210;2023-04-30T05:10:02;101976.44;;;3.87;89.29
68793;BME280;55778;54.346;10.210;2023-04-30T05:12:28;101980.44;;;3.97;89.07
68793;BME280;55778;54.346;10.210;2023-04-30T05:14:53;101977.69;;;3.99;89.25
68793;BME280;55778;54.346;10.210;2023-04-30T05:17:18;101982.44;;;4.11;88.13
68793;BME280;55778;54.346;10.210;2023-04-30T05:19:44;101989.47;;;4.15;88.12
68793;BME280;55778;54.346;10.210;2023-04-30T05:22:12;101990.25;;;4.17;87.40
68793;BME280;55778;54.346;10.210;2023-04-30T05:24:37;101980.75;;;4.27;86.06
68793;BME280;55778;54.346;10.210;2023-04-30T05:27:02;101986.78;;;4.32;86.01
68793;BME280;55778;54.346;10.210;2023-04-30T05:29:29;101986.78;;;4.32;85.96
68793;BME280;55778;54.346;10.210;2023-04-30T05:31:55;101990.06;;;4.39;85.48
68793;BME280;55778;54.346;10.210;2023-04-30T05:34:21;102000.31;;;4.49;85.23
68793;BME280;55778;54.346;10.210;2023-04-30T05:36:46;102000.88;;;4.56;84.92
68793;BME280;55778;54.346;10.210;2023-04-30T05:39:11;101997.69;;;4.65;84.41
68793;BME280;55778;54.346;10.210;2023-04-30T05:41:37;101999.25;;;4.70;83.88
68793;BME280;55778;54.346;10.210;2023-04-30T05:44:02;101995.78;;;4.84;83.56
68793;BME280;55778;54.346;10.210;2023-04-30T05:46:29;101998.66;;;4.98;82.72
68793;BME280;55778;54.346;10.210;2023-04-30T05:48:54;101999.06;;;5.07;80.85
68793;BME280;55778;54.346;10.210;2023-04-30T05:51:20;102000.47;;;5.14;79.77
68793;BME280;55778;54.346;10.210;2023-04-30T05:53:45;101999.28;;;5.20;78.32
68793;BME280;55778;54.346;10.210;2023-04-30T05:56:10;102009.34;;;5.33;78.12
68793;BME280;55778;54.346;10.210;2023-04-30T05:58:37;102002.81;;;5.37;76.48
68793;BME280;55778;54.346;10.210;2023-04-30T06:01:03;101999.25;;;5.37;75.81
68793;BME280;55778;54.346;10.210;2023-04-30T06:03:29;102006.41;;;5.38;75.52
68793;BME280;55778;54.346;10.210;2023-04-30T06:05:54;102009.81;;;5.41;76.04
68793;BME280;55778;54.346;10.210;2023-04-30T06:08:20;102000.25;;;5.51;75.13
68793;BME280;55778;54.346;10.210;2023-04-30T06:10:45;102012.56;;;5.57;75.20
68793;BME280;55778;54.346;10.210;2023-04-30T06:13:11;102014.19;;;5.59;74.62
68793;BME280;55778;54.346;10.210;2023-04-30T06:15:37;102012.78;;;5.69;74.95
68793;BME280;55778;54.346;10.210;2023-04-30T06:18:02;102008.59;;;5.79;73.83
68793;BME280;55778;54.346;10.210;2023-04-30T06:20:27;102016.41;;;5.68;72.88
68793;BME280;55778;54.346;10.210;2023-04-30T06:22:56;102012.13;;;5.81;72.77
68793;BME280;55778;54.346;10.210;2023-04-30T06:25:21;102006.78;;;5.80;71.84
68793;BME280;55778;54.346;10.210;2023-04-30T06:27:46;102014.38;;;5.89;72.49
68793;BME280;55778;54.346;10.210;2023-04-30T06:30:12;102021.66;;;6.20;72.37
68793;BME280;55778;54.346;10.210;2023-04-30T06:32:38;102019.72;;;6.06;70.77
68793;BME280;55778;54.346;10.210;2023-04-30T06:35:06;102019.53;;;6.25;71.57
68793;BME280;55778;54.346;10.210;2023-04-30T06:37:35;102028.19;;;6.47;69.89
68793;BME280;55778;54.346;10.210;2023-04-30T06:40:05;102022.56;;;6.65;69.46
68793;BME280;55778;54.346;10.210;2023-04-30T06:42:36;102031.13;;;6.73;68.78
68793;BME280;55778;54.346;10.210;2023-04-30T06:45:05;102032.69;;;7.07;68.88
68793;BME280;55778;54.346;10.210;2023-04-30T06:47:33;102025.25;;;7.24;69.38
68793;BME280;55778;54.346;10.210;2023-04-30T06:49:59;102025.81;;;7.15;68.03
68793;BME280;55778;54.346;10.210;2023-04-30T06:52:25;102035.91;;;7.27;67.58
68793;BME280;55778;54.346;10.210;2023-04-30T06:54:51;102025.88;;;7.43;67.38
68793;BME280;55778;54.346;10.210;2023-04-30T06:57:16;102026.75;;;7.30;66.63
68793;BME280;55778;54.346;10.210;2023-04-30T06:59:41;102035.91;;;7.27;65.83
68793;BME280;55778;54.346;10.210;2023-04-30T07:02:07;102028.47;;;7.45;65.33
68793;BME280;55778;54.346;10.210;2023-04-30T07:04:32;102030.03;;;7.35;65.07
68793;BME280;55778;54.346;10.210;2023-04-30T07:07:01;102024.44;;;7.66;62.99
68793;BME280;55778;54.346;10.210;2023-04-30T07:09:27;102026.97;;;7.55;60.10
68793;BME280;55778;54.346;10.210;2023-04-30T07:11:53;102033.13;;;6.99;61.06
68793;BME280;55778;54.346;10.210;2023-04-30T07:14:18;102037.69;;;7.42;60.78
68793;BME280;55778;54.346;10.210;2023-04-30T07:16:44;102039.88;;;7.36;59.15
68793;BME280;55778;54.346;10.210;2023-04-30T07:19:09;102041.19;;;7.44;59.68
68793;BME280;55778;54.346;10.210;2023-04-30T07:21:34;102041.91;;;6.89;60.96
68793;BME280;55778;54.346;10.210;2023-04-30T07:24:00;102046.00;;;6.96;62.53
68793;BME280;55778;54.346;10.210;2023-04-30T07:26:25;102051.63;;;7.36;61.98
68793;BME280;55778;54.346;10.210;2023-04-30T07:28:51;102053.28;;;7.53;61.92
68793;BME280;55778;54.346;10.210;2023-04-30T07:31:16;102053.97;;;7.42;61.63
68793;BME280;55778;54.346;10.210;2023-04-30T07:33:43;102060.22;;;6.99;62.08
68793;BME280;55778;54.346;10.210;2023-04-30T07:36:09;102053.47;;;6.77;61.83
68793;BME280;55778;54.346;10.210;2023-04-30T07:38:34;102059.19;;;7.31;61.50
68793;BME280;55778;54.346;10.210;2023-04-30T07:41:00;102055.63;;;7.59;61.55
68793;BME280;55778;54.346;10.210;2023-04-30T07:43:27;102063.75;;;7.73;59.35
68793;BME280;55778;54.346;10.210;2023-04-30T07:45:53;102061.63;;;8.06;58.56
68793;BME280;55778;54.346;10.210;2023-04-30T07:48:19;102074.44;;;7.76;59.20
68793;BME280;55778;54.346;10.210;2023-04-30T07:50:48;102067.84;;;8.22;59.73
68793;BME280;55778;54.346;10.210;2023-04-30T07:53:14;102067.06;;;8.20;59.26
68793;BME280;55778;54.346;10.210;2023-04-30T07:55:39;102071.13;;;8.13;59.46
68793;BME280;55778;54.346;10.210;2023-04-30T07:58:05;102072.22;;;8.65;58.58
68793;BME280;55778;54.346;10.210;2023-04-30T08:00:30;102076.31;;;8.58;57.22
68793;BME280;55778;54.346;10.210;2023-04-30T08:02:57;102076.88;;;7.94;57.21
68793;BME280;55778;54.346;10.210;2023-04-30T08:05:23;102076.56;;;7.71;58.82
68793;BME280;55778;54.346;10.210;2023-04-30T08:07:48;102079.56;;;8.08;58.86
68793;BME280;55778;54.346;10.210;2023-04-30T08:10:14;102077.38;;;8.29;57.79
68793;BME280;55778;54.346;10.210;2023-04-30T08:12:39;102083.94;;;7.69;57.48
68793;BME280;55778;54.346;10.210;2023-04-30T08:15:05;102080.84;;;7.89;57.04
68793;BME280;55778;54.346;10.210;2023-04-30T08:17:32;102081.63;;;8.33;56.47
68793;BME280;55778;54.346;10.210;2023-04-30T08:19:58;102080.16;;;8.68;56.32
68793;BME280;55778;54.346;10.210;2023-04-30T08:22:24;102086.38;;;8.70;54.90
68793;BME280;55778;54.346;10.210;2023-04-30T08:24:49;102085.31;;;8.32;56.27
68793;BME280;55778;54.346;10.210;2023-04-30T08:27:15;102084.41;;;8.17;55.81
68793;BME280;55778;54.346;10.210;2023-04-30T08:29:40;102090.41;;;7.66;57.23
68793;BME280;55778;54.346;10.210;2023-04-30T08:32:06;102087.44;;;7.71;57.70
68793;BME280;55778;54.346;10.210;2023-04-30T08:34:33;102089.06;;;7.73;57.90
68793;BME280;55778;54.346;10.210;2023-04-30T08:36:58;102087.66;;;8.24;56.38
68793;BME280;55778;54.346;10.210;2023-04-30T08:39:24;102094.22;;;8.06;55.40
68793;BME280;55778;54.346;10.210;2023-04-30T08:41:54;102092.78;;;8.00;56.94
68793;BME280;55778;54.346;10.210;2023-04-30T08:44:23;102089.13;;;8.83;54.33
68793;BME280;55778;54.346;10.210;2023-04-30T08:46:53;102098.66;;;8.90;55.08
68793;BME280;55778;54.346;10.210;2023-04-30T08:49:20;102095.72;;;9.32;53.50
68793;BME280;55778;54.346;10.210;2023-04-30T08:51:46;102091.66;;;9.12;51.20
68793;BME280;55778;54.346;10.210;2023-04-30T08:54:12;102097.19;;;8.84;52.72
68793;BME280;55778;54.346;10.210;2023-04-30T08:56:39;102099.91;;;8.84;52.95
68793;BME280;55778;54.346;10.210;2023-04-30T08:59:05;102087.03;;;9.39;53.30
68793;BME280;55778;54.346;10.210;2023-04-30T09:01:31;102094.03;;;9.56;52.05
68793;BME280;55778;54.346;10.210;2023-04-30T09:03:58;102089.44;;;9.44;52.88
68793;BME280;55778;54.346;10.210;2023-04-30T09:06:23;102101.69;;;9.24;53.97
68793;BME280;55778;54.346;10.210;2023-04-30T09:08:49;102094.66;;;9.34;51.27
68793;BME280;55778;54.346;10.210;2023-04-30T09:13:50;102083.94;;;10.08;49.63
68793;BME280;55778;54.346;10.210;2023-04-30T09:16:18;102093.63;;;9.23;50.71
68793;BME280;55778;54.346;10.210;2023-04-30T09:18:43;102087.75;;;9.80;50.93
68793;BME280;55778;54.346;10.210;2023-04-30T09:21:09;102090.59;;;8.88;52.76
68793;BME280;55778;54.346;10.210;2023-04-30T09:23:35;102088.72;;;9.79;53.01
68793;BME280;55778;54.346;10.210;2023-04-30T09:26:00;102088.13;;;10.50;50.10
68793;BME280;55778;54.346;10.210;2023-04-30T09:28:25;102089.94;;;9.88;51.74
68793;BME280;55778;54.346;10.210;2023-04-30T09:30:55;102092.69;;;9.24;52.80
68793;BME280;55778;54.346;10.210;2023-04-30T09:33:21;102098.47;;;9.44;52.72
68793;BME280;55778;54.346;10.210;2023-04-30T09:35:47;102100.78;;;9.63;50.61
68793;BME280;55778;54.346;10.210;2023-04-30T09:38:27;102100.19;;;10.22;50.50
68793;BME280;55778;54.346;10.210;2023-04-30T09:40:53;102089.78;;;11.23;46.24
68793;BME280;55778;54.346;10.210;2023-04-30T09:43:19;102093.50;;;10.75;47.28
68793;BME280;55778;54.346;10.210;2023-04-30T09:45:45;102092.63;;;10.26;47.77
68793;BME280;55778;54.346;10.210;2023-04-30T09:48:16;102090.41;;;10.43;47.88
68793;BME280;55778;54.346;10.210;2023-04-30T09:50:43;102097.53;;;9.83;48.94
68793;BME280;55778;54.346;10.210;2023-04-30T09:53:10;102087.06;;;10.27;48.92
68793;BME280;55778;54.346;10.210;2023-04-30T09:55:45;102092.81;;;11.07;48.60
68793;BME280;55778;54.346;10.210;2023-04-30T09:58:11;102093.22;;;11.14;46.91
68793;BME280;55778;54.346;10.210;2023-04-30T10:00:37;102077.81;;;10.66;46.97
68793;BME280;55778;54.346;10.210;2023-04-30T10:03:12;102080.00;;;9.99;48.39
68793;BME280;55778;54.346;10.210;2023-04-30T10:05:41;102078.03;;;9.76;49.26
68793;BME280;55778;54.346;10.210;2023-04-30T10:10:42;102060.88;;;10.37;49.05
68793;BME280;55778;54.346;10.210;2023-04-30T10:13:14;102070.50;;;11.13;48.58
68793;BME280;55778;54.346;10.210;2023-04-30T10:15:50;102064.28;;;11.35;46.16
68793;BME280;55778;54.346;10.210;2023-04-30T10:18:36;102066.56;;;11.52;48.44
68793;BME280;55778;54.346;10.210;2023-04-30T10:21:06;102065.31;;;11.45;48.45
68793;BME280;55778;54.346;10.210;2023-04-30T10:23:38;102063.56;;;10.86;47.75
68793;BME280;55778;54.346;10.210;2023-04-30T10:26:07;102046.69;;;11.95;45.29
68793;BME280;55778;54.346;10.210;2023-04-30T10:28:33;102053.34;;;11.00;47.26
68793;BME280;55778;54.346;10.210;2023-04-30T10:30:59;102054.44;;;9.89;49.45
68793;BME280;55778;54.346;10.210;2023-04-30T10:33:31;102053.41;;;10.88;50.07
68793;BME280;55778;54.346;10.210;2023-04-30T10:36:02;102054.50;;;10.62;49.64
68793;BME280;55778;54.346;10.210;2023-04-30T10:38:31;102050.84;;;11.66;47.77
68793;BME280;55778;54.346;10.210;2023-04-30T10:41:01;102050.75;;;11.33;47.45
68793;BME280;55778;54.346;10.210;2023-04-30T10:43:29;102047.16;;;11.89;48.13
68793;BME280;55778;54.346;10.210;2023-04-30T10:45:56;102055.19;;;10.53;47.91
68793;BME280;55778;54.346;10.210;2023-04-30T10:48:25;102050.13;;;11.64;47.44
68793;BME280;55778;54.346;10.210;2023-04-30T10:50:54;102048.81;;;11.12;48.31
68793;BME280;55778;54.346;10.210;2023-04-30T10:53:20;102052.81;;;10.95;47.17
68793;BME280;55778;54.346;10.210;2023-04-30T10:56:07;102041.78;;;13.08;44.16
68793;BME280;55778;54.346;10.210;2023-04-30T10:58:36;102035.53;;;12.63;44.03
68793;BME280;55778;54.346;10.210;2023-04-30T11:01:11;102030.75;;;12.23;44.74
68793;BME280;55778;54.346;10.210;2023-04-30T11:03:40;102034.72;;;12.52;45.14
68793;BME280;55778;54.346;10.210;2023-04-30T11:06:16;102032.22;;;12.38;45.68
68793;BME280;55778;54.346;10.210;2023-04-30T11:08:45;102032.47;;;10.65;45.40
68793;BME280;55778;54.346;10.210;2023-04-30T11:11:16;102031.63;;;12.23;46.04
68793;BME280;55778;54.346;10.210;2023-04-30T11:13:46;102029.84;;;12.55;44.64
68793;BME280;55778;54.346;10.210;2023-04-30T11:16:12;102017.00;;;11.91;45.25
68793;BME280;55778;54.346;10.210;2023-04-30T11:18:44;102018.16;;;11.08;46.27
68793;BME280;55778;54.346;10.210;2023-04-30T11:21:10;102017.88;;;11.00;45.81
68793;BME280;55778;54.346;10.210;2023-04-30T11:23:36;102018.00;;;12.01;45.59
68793;BME280;55778;54.346;10.210;2023-04-30T11:26:06;102002.19;;;13.73;42.08
68793;BME280;55778;54.346;10.210;2023-04-30T11:28:32;102001.78;;;13.16;43.54
68793;BME280;55778;54.346;10.210;2023-04-30T11:31:00;102000.94;;;12.73;43.06
68793;BME280;55778;54.346;10.210;2023-04-30T11:33:27;101996.03;;;12.88;43.17
68793;BME280;55778;54.346;10.210;2023-04-30T11:35:55;102002.84;;;11.97;46.33
68793;BME280;55778;54.346;10.210;2023-04-30T11:38:28;101998.66;;;12.47;44.90
68793;BME280;55778;54.346;10.210;2023-04-30T11:40:56;102002.09;;;11.95;46.58
68793;BME280;55778;54.346;10.210;2023-04-30T11:43:29;101992.91;;;11.63;46.46
68793;BME280;55778;54.346;10.210;2023-04-30T11:48:23;101989.16;;;12.19;47.12
68793;BME280;55778;54.346;10.210;2023-04-30T11:50:49;101988.63;;;12.36;47.48
68793;BME280;55778;54.346;10.210;2023-04-30T11:53:15;101992.72;;;10.50;49.02
68793;BME280;55778;54.346;10.210;2023-04-30T11:55:40;101995.94;;;11.36;47.93
68793;BME280;55778;54.346;10.210;2023-04-30T11:58:08;102003.59;;;12.10;47.05
68793;BME280;55778;54.346;10.210;2023-04-30T12:00:34;101999.72;;;12.13;47.05
68793;BME280;55778;54.346;10.210;2023-04-30T12:03:00;101991.44;;;14.21;40.28
68793;BME280;55778;54.346;10.210;2023-04-30T12:05:27;101992.72;;;15.33;38.58
68793;BME280;55778;54.346;10.210;2023-04-30T12:07:59;101990.31;;;11.83;43.04
68793;BME280;55778;54.346;10.210;2023-04-30T12:10:25;101987.75;;;12.78;42.76
68793;BME280;55778;54.346;10.210;2023-04-30T12:12:51;101987.31;;;13.25;43.12
68793;BME280;55778;54.346;10.210;2023-04-30T12:15:23;101979.97;;;12.31;42.99
68793;BME280;55778;54.346;10.210;2023-04-30T12:17:55;101980.38;;;11.71;44.54
68793;BME280;55778;54.346;10.210;2023-04-30T12:20:22;101977.16;;;12.85;43.42
68793;BME280;55778;54.346;10.210;2023-04-30T12:22:49;101987.47;;;12.50;43.19
68793;BME280;55778;54.346;10.210;2023-04-30T12:25:16;101977.06;;;12.44;43.26
68793;BME280;55778;54.346;10.210;2023-04-30T12:27:47;101979.84;;;12.22;43.15
68793;BME280;55778;54.346;10.210;2023-04-30T12:30:13;101962.63;;;14.27;41.21
68793;BME280;55778;54.346;10.210;2023-04-30T12:32:41;101975.63;;;13.44;41.74
68793;BME280;55778;54.346;10.210;2023-04-30T12:35:13;101971.16;;;13.02;43.93
68793;BME280;55778;54.346;10.210;2023-04-30T12:37:50;101972.19;;;11.71;45.50
68793;BME280;55778;54.346;10.210;2023-04-30T12:40:20;101973.66;;;11.86;46.10
68793;BME280;55778;54.346;10.210;2023-04-30T12:42:46;101969.63;;;13.50;44.03
68793;BME280;55778;54.346;10.210;2023-04-30T12:45:39;101961.25;;;13.31;43.40
68793;BME280;55778;54.346;10.210;2023-04-30T12:47:58;101963.50;;;12.42;44.68
68793;BME280;55778;54.346;10.210;2023-04-30T12:50:24;101961.47;;;12.24;44.00
68793;BME280;55778;54.346;10.210;2023-04-30T12:52:49;101958.97;;;11.54;45.74
68793;BME280;55778;54.346;10.210;2023-04-30T12:55:17;101961.66;;;12.32;45.34
68793;BME280;55778;54.346;10.210;2023-04-30T12:58:06;101970.03;;;12.08;45.11
68793;BME280;55778;54.346;10.210;2023-04-30T13:00:49;101951.97;;;12.39;44.88
68793;BME280;55778;54.346;10.210;2023-04-30T13:03:16;101961.59;;;12.54;44.08
68793;BME280;55778;54.346;10.210;2023-04-30T13:05:46;101947.94;;;12.11;45.84
68793;BME280;55778;54.346;10.210;2023-04-30T13:08:16;101941.50;;;11.90;45.05